sensor_id;sensor_type;location;lat;lon;timestamp;P1;durP1;ratioP1;P2;durP2;ratioP2
75603;SDS011;64187;51.010;13.792;2023-05-23T00:03:46;7.63;;;4.13;;
75603;SDS011;64187;51.010;13.792;2023-05-23T00:08:47;10.68;;;4.88;;
75603;SDS011;64187;51.010;13.792;2023-05-23T00:13:46;5.85;;;4.22;;
75603;SDS011;64187;51.010;13.792;2023-05-23T00:18:45;5.65;;;4.43;;
75603;SDS011;64187;51.010;13.792;2023-05-23T00:23:43;6.82;;;4.40;;
75603;SDS011;64187;51.010;13.792;2023-05-23T00:28:42;5.72;;;4.18;;
75603;SDS011;64187;51.010;13.792;2023-05-23T00:33:41;8.25;;;5.15;;
75603;SDS011;64187;51.010;13.792;2023-05-23T00:38:40;6.50;;;5.05;;
75603;SDS011;64187;51.010;13.792;2023-05-23T00:43:39;7.80;;;5.07;;
75603;SDS011;64187;51.010;13.792;2023-05-23T00:48:38;8.65;;;5.55;;
75603;SDS011;64187;51.010;13.792;2023-05-23T00:53:37;9.40;;;5.65;;
75603;SDS011;64187;51.010;13.792;2023-05-23T00:58:36;9.93;;;6.40;;
75603;SDS011;64187;51.010;13.792;2023-05-23T01:03:35;7.47;;;6.03;;
75603;SDS011;64187;51.010;13.792;2023-05-23T01:08:35;9.38;;;6.80;;
75603;SDS011;64187;51.010;13.792;2023-05-23T01:18:37;11.25;;;6.45;;
75603;SDS011;64187;51.010;13.792;2023-05-23T01:29:06;9.40;;;6.88;;
75603;SDS011;64187;51.010;13.792;2023-05-23T01:34:08;10.70;;;7.00;;
75603;SDS011;64187;51.010;13.792;2023-05-23T01:39:07;11.85;;;7.07;;
75603;SDS011;64187;51.010;13.792;2023-05-23T01:44:08;9.60;;;6.90;;
75603;SDS011;64187;51.010;13.792;2023-05-23T01:49:07;10.65;;;6.13;;
75603;SDS011;64187;51.010;13.792;2023-05-23T01:54:08;9.50;;;6.40;;
75603;SDS011;64187;51.010;13.792;2023-05-23T01:59:07;10.88;;;7.80;;
75603;SDS011;64187;51.010;13.792;2023-05-23T02:04:07;10.18;;;7.10;;
75603;SDS011;64187;51.010;13.792;2023-05-23T02:09:06;8.60;;;6.50;;
75603;SDS011;64187;51.010;13.792;2023-05-23T02:14:06;9.23;;;5.68;;
75603;SDS011;64187;51.010;13.792;2023-05-23T02:19:04;10.15;;;7.05;;
75603;SDS011;64187;51.010;13.792;2023-05-23T02:24:04;12.93;;;7.20;;
75603;SDS011;64187;51.010;13.792;2023-05-23T02:29:03;12.07;;;8.10;;
75603;SDS011;64187;51.010;13.792;2023-05-23T02:34:01;7.85;;;4.93;;
75603;SDS011;64187;51.010;13.792;2023-05-23T02:39:00;7.20;;;4.18;;
75603;SDS011;64187;51.010;13.792;2023-05-23T02:44:00;6.72;;;5.03;;
75603;SDS011;64187;51.010;13.792;2023-05-23T02:48:59;7.80;;;5.22;;
75603;SDS011;64187;51.010;13.792;2023-05-23T02:53:58;17.65;;;6.55;;
75603;SDS011;64187;51.010;13.792;2023-05-23T02:58:57;9.05;;;6.57;;
75603;SDS011;64187;51.010;13.792;2023-05-23T03:03:56;8.32;;;6.35;;
75603;SDS011;64187;51.010;13.792;2023-05-23T03:08:55;9.65;;;6.90;;
75603;SDS011;64187;51.010;13.792;2023-05-23T03:13:54;10.35;;;7.13;;
75603;SDS011;64187;51.010;13.792;2023-05-23T03:18:53;8.25;;;5.75;;
75603;SDS011;64187;51.010;13.792;2023-05-23T03:23:52;8.43;;;6.85;;
75603;SDS011;64187;51.010;13.792;2023-05-23T03:28:51;12.25;;;6.53;;
75603;SDS011;64187;51.010;13.792;2023-05-23T03:33:50;9.90;;;6.40;;
75603;SDS011;64187;51.010;13.792;2023-05-23T03:38:49;9.02;;;6.85;;
75603;SDS011;64187;51.010;13.792;2023-05-23T03:43:48;10.45;;;7.80;;
75603;SDS011;64187;51.010;13.792;2023-05-23T03:48:47;10.55;;;7.03;;
75603;SDS011;64187;51.010;13.792;2023-05-23T03:53:46;10.48;;;7.20;;
75603;SDS011;64187;51.010;13.792;2023-05-23T03:58:45;11.15;;;7.13;;
75603;SDS011;64187;51.010;13.792;2023-05-23T04:03:46;15.95;;;7.43;;
75603;SDS011;64187;51.010;13.792;2023-05-23T04:08:47;9.35;;;6.30;;
75603;SDS011;64187;51.010;13.792;2023-05-23T04:13:46;10.00;;;7.40;;
75603;SDS011;64187;51.010;13.792;2023-05-23T04:18:47;6.13;;;4.43;;
75603;SDS011;64187;51.010;13.792;2023-05-23T04:23:46;6.97;;;4.43;;
75603;SDS011;64187;51.010;13.792;2023-05-23T04:28:46;8.43;;;5.72;;
75603;SDS011;64187;51.010;13.792;2023-05-23T04:33:47;6.45;;;5.03;;
75603;SDS011;64187;51.010;13.792;2023-05-23T04:38:48;7.75;;;5.53;;
75603;SDS011;64187;51.010;13.792;2023-05-23T04:43:48;6.82;;;4.93;;
75603;SDS011;64187;51.010;13.792;2023-05-23T04:48:58;7.18;;;5.30;;
75603;SDS011;64187;51.010;13.792;2023-05-23T04:53:57;7.60;;;5.10;;
75603;SDS011;64187;51.010;13.792;2023-05-23T04:58:56;7.90;;;4.82;;
75603;SDS011;64187;51.010;13.792;2023-05-23T05:03:57;7.75;;;5.68;;
75603;SDS011;64187;51.010;13.792;2023-05-23T05:08:56;9.05;;;6.60;;
75603;SDS011;64187;51.010;13.792;2023-05-23T05:13:55;9.23;;;6.65;;
75603;SDS011;64187;51.010;13.792;2023-05-23T05:18:55;10.20;;;7.15;;
75603;SDS011;64187;51.010;13.792;2023-05-23T05:23:54;12.00;;;7.70;;
75603;SDS011;64187;51.010;13.792;2023-05-23T05:28:54;10.93;;;7.32;;
75603;SDS011;64187;51.010;13.792;2023-05-23T05:33:54;23.48;;;10.63;;
75603;SDS011;64187;51.010;13.792;2023-05-23T05:38:54;10.13;;;7.57;;
75603;SDS011;64187;51.010;13.792;2023-05-23T05:43:53;9.63;;;6.97;;
75603;SDS011;64187;51.010;13.792;2023-05-23T05:48:56;10.68;;;7.32;;
75603;SDS011;64187;51.010;13.792;2023-05-23T05:53:55;11.85;;;7.20;;
75603;SDS011;64187;51.010;13.792;2023-05-23T05:58:54;11.20;;;8.63;;
75603;SDS011;64187;51.010;13.792;2023-05-23T06:03:54;12.93;;;9.05;;
75603;SDS011;64187;51.010;13.792;2023-05-23T06:08:54;16.52;;;12.55;;
75603;SDS011;64187;51.010;13.792;2023-05-23T06:13:53;16.83;;;13.48;;
75603;SDS011;64187;51.010;13.792;2023-05-23T06:18:51;17.70;;;14.55;;
75603;SDS011;64187;51.010;13.792;2023-05-23T06:23:52;19.88;;;16.58;;
75603;SDS011;64187;51.010;13.792;2023-05-23T06:28:51;20.38;;;17.55;;
75603;SDS011;64187;51.010;13.792;2023-05-23T06:33:50;22.40;;;18.40;;
75603;SDS011;64187;51.010;13.792;2023-05-23T06:38:49;21.88;;;17.45;;
75603;SDS011;64187;51.010;13.792;2023-05-23T06:43:48;21.20;;;16.40;;
75603;SDS011;64187;51.010;13.792;2023-05-23T06:48:54;20.02;;;16.80;;
75603;SDS011;64187;51.010;13.792;2023-05-23T06:54:12;20.75;;;16.25;;
75603;SDS011;64187;51.010;13.792;2023-05-23T06:59:11;21.02;;;15.52;;
75603;SDS011;64187;51.010;13.792;2023-05-23T07:04:10;18.05;;;15.65;;
75603;SDS011;64187;51.010;13.792;2023-05-23T07:09:10;18.42;;;16.13;;
75603;SDS011;64187;51.010;13.792;2023-05-23T07:14:11;16.70;;;14.38;;
75603;SDS011;64187;51.010;13.792;2023-05-23T07:19:12;17.33;;;13.73;;
75603;SDS011;64187;51.010;13.792;2023-05-23T07:24:21;16.83;;;13.15;;
75603;SDS011;64187;51.010;13.792;2023-05-23T07:29:25;18.30;;;12.88;;
75603;SDS011;64187;51.010;13.792;2023-05-23T07:34:24;12.95;;;11.45;;
75603;SDS011;64187;51.010;13.792;2023-05-23T07:39:31;13.88;;;11.43;;
75603;SDS011;64187;51.010;13.792;2023-05-23T07:44:31;13.85;;;11.45;;
75603;SDS011;64187;51.010;13.792;2023-05-23T07:49:31;13.15;;;11.52;;
75603;SDS011;64187;51.010;13.792;2023-05-23T07:54:30;14.20;;;11.02;;
75603;SDS011;64187;51.010;13.792;2023-05-23T07:59:31;14.65;;;10.82;;
75603;SDS011;64187;51.010;13.792;2023-05-23T08:04:33;14.38;;;11.30;;
75603;SDS011;64187;51.010;13.792;2023-05-23T08:09:34;15.80;;;10.80;;
75603;SDS011;64187;51.010;13.792;2023-05-23T08:14:34;11.48;;;10.05;;
75603;SDS011;64187;51.010;13.792;2023-05-23T08:20:00;14.55;;;10.52;;
75603;SDS011;64187;51.010;13.792;2023-05-23T08:25:01;12.25;;;9.90;;
75603;SDS011;64187;51.010;13.792;2023-05-23T08:30:02;13.82;;;10.55;;
75603;SDS011;64187;51.010;13.792;2023-05-23T08:35:02;13.30;;;10.75;;
75603;SDS011;64187;51.010;13.792;2023-05-23T08:40:02;14.45;;;10.40;;
75603;SDS011;64187;51.010;13.792;2023-05-23T08:45:15;13.38;;;11.98;;
75603;SDS011;64187;51.010;13.792;2023-05-23T08:50:16;13.20;;;10.23;;
75603;SDS011;64187;51.010;13.792;2023-05-23T08:55:20;13.02;;;9.57;;
75603;SDS011;64187;51.010;13.792;2023-05-23T09:00:22;13.80;;;10.23;;
75603;SDS011;64187;51.010;13.792;2023-05-23T09:05:23;14.35;;;10.48;;
75603;SDS011;64187;51.010;13.792;2023-05-23T09:10:24;17.10;;;12.10;;
75603;SDS011;64187;51.010;13.792;2023-05-23T09:21:04;15.32;;;11.55;;
75603;SDS011;64187;51.010;13.792;2023-05-23T09:26:09;18.05;;;13.38;;
75603;SDS011;64187;51.010;13.792;2023-05-23T09:31:11;18.50;;;13.70;;
75603;SDS011;64187;51.010;13.792;2023-05-23T09:36:10;20.77;;;14.98;;
75603;SDS011;64187;51.010;13.792;2023-05-23T09:41:09;23.23;;;15.48;;
75603;SDS011;64187;51.010;13.792;2023-05-23T09:46:12;24.58;;;17.23;;
75603;SDS011;64187;51.010;13.792;2023-05-23T09:51:10;28.83;;;19.50;;
75603;SDS011;64187;51.010;13.792;2023-05-23T09:56:11;35.15;;;21.13;;
75603;SDS011;64187;51.010;13.792;2023-05-23T10:01:10;34.25;;;21.02;;
75603;SDS011;64187;51.010;13.792;2023-05-23T10:06:35;35.25;;;20.75;;
75603;SDS011;64187;51.010;13.792;2023-05-23T10:17:28;26.73;;;15.93;;
75603;SDS011;64187;51.010;13.792;2023-05-23T10:22:37;21.30;;;13.18;;
75603;SDS011;64187;51.010;13.792;2023-05-23T10:27:36;19.60;;;12.25;;
75603;SDS011;64187;51.010;13.792;2023-05-23T10:32:37;17.02;;;10.43;;
75603;SDS011;64187;51.010;13.792;2023-05-23T10:37:38;13.57;;;9.15;;
75603;SDS011;64187;51.010;13.792;2023-05-23T10:47:48;11.95;;;8.38;;
75603;SDS011;64187;51.010;13.792;2023-05-23T10:52:51;14.43;;;9.35;;
75603;SDS011;64187;51.010;13.792;2023-05-23T10:58:10;13.07;;;9.30;;
75603;SDS011;64187;51.010;13.792;2023-05-23T11:03:13;14.15;;;9.52;;
75603;SDS011;64187;51.010;13.792;2023-05-23T11:08:14;12.68;;;8.05;;
75603;SDS011;64187;51.010;13.792;2023-05-23T11:13:15;11.98;;;7.95;;
75603;SDS011;64187;51.010;13.792;2023-05-23T11:18:26;14.77;;;7.22;;
75603;SDS011;64187;51.010;13.792;2023-05-23T11:23:28;10.63;;;7.20;;
75603;SDS011;64187;51.010;13.792;2023-05-23T11:28:57;12.32;;;7.00;;
75603;SDS011;64187;51.010;13.792;2023-05-23T11:33:56;10.95;;;7.43;;
75603;SDS011;64187;51.010;13.792;2023-05-23T11:38:55;10.27;;;6.75;;
75603;SDS011;64187;51.010;13.792;2023-05-23T11:44:00;10.48;;;7.68;;
75603;SDS011;64187;51.010;13.792;2023-05-23T11:48:59;10.15;;;7.20;;
75603;SDS011;64187;51.010;13.792;2023-05-23T11:54:01;14.25;;;7.65;;
75603;SDS011;64187;51.010;13.792;2023-05-23T11:59:00;13.55;;;7.72;;
75603;SDS011;64187;51.010;13.792;2023-05-23T12:03:59;11.90;;;8.40;;
75603;SDS011;64187;51.010;13.792;2023-05-23T12:09:11;11.60;;;8.93;;
75603;SDS011;64187;51.010;13.792;2023-05-23T12:14:13;13.13;;;9.02;;
75603;SDS011;64187;51.010;13.792;2023-05-23T12:19:21;9.38;;;8.18;;
75603;SDS011;64187;51.010;13.792;2023-05-23T12:24:23;11.73;;;8.68;;
75603;SDS011;64187;51.010;13.792;2023-05-23T12:29:30;10.05;;;8.27;;
75603;SDS011;64187;51.010;13.792;2023-05-23T12:34:39;11.05;;;8.55;;
75603;SDS011;64187;51.010;13.792;2023-05-23T12:39:42;9.45;;;7.63;;
75603;SDS011;64187;51.010;13.792;2023-05-23T12:44:44;11.68;;;7.35;;
75603;SDS011;64187;51.010;13.792;2023-05-23T12:49:44;9.88;;;8.07;;
75603;SDS011;64187;51.010;13.792;2023-05-23T12:54:44;9.30;;;7.85;;
75603;SDS011;64187;51.010;13.792;2023-05-23T12:59:43;12.35;;;8.60;;
75603;SDS011;64187;51.010;13.792;2023-05-23T13:04:42;9.27;;;7.85;;
75603;SDS011;64187;51.010;13.792;2023-05-23T13:09:41;10.30;;;8.05;;
75603;SDS011;64187;51.010;13.792;2023-05-23T13:14:41;10.27;;;7.40;;
75603;SDS011;64187;51.010;13.792;2023-05-23T13:19:40;10.23;;;7.85;;
75603;SDS011;64187;51.010;13.792;2023-05-23T13:24:40;9.63;;;7.75;;
75603;SDS011;64187;51.010;13.792;2023-05-23T13:29:41;10.35;;;8.15;;
75603;SDS011;64187;51.010;13.792;2023-05-23T13:34:40;10.13;;;7.25;;
75603;SDS011;64187;51.010;13.792;2023-05-23T13:39:40;9.88;;;6.60;;
75603;SDS011;64187;51.010;13.792;2023-05-23T13:44:39;8.10;;;6.00;;
75603;SDS011;64187;51.010;13.792;2023-05-23T13:49:38;9.25;;;6.82;;
75603;SDS011;64187;51.010;13.792;2023-05-23T13:54:37;9.43;;;6.97;;
75603;SDS011;64187;51.010;13.792;2023-05-23T13:59:36;10.20;;;7.00;;
75603;SDS011;64187;51.010;13.792;2023-05-23T14:04:35;13.30;;;8.50;;
75603;SDS011;64187;51.010;13.792;2023-05-23T14:09:35;13.60;;;7.45;;
75603;SDS011;64187;51.010;13.792;2023-05-23T14:14:34;10.98;;;7.95;;
75603;SDS011;64187;51.010;13.792;2023-05-23T14:19:33;10.10;;;6.50;;
75603;SDS011;64187;51.010;13.792;2023-05-23T14:24:32;10.02;;;5.47;;
75603;SDS011;64187;51.010;13.792;2023-05-23T14:29:31;6.82;;;5.32;;
75603;SDS011;64187;51.010;13.792;2023-05-23T14:34:30;7.63;;;5.18;;
75603;SDS011;64187;51.010;13.792;2023-05-23T14:39:29;6.22;;;4.97;;
75603;SDS011;64187;51.010;13.792;2023-05-23T14:44:31;3.50;;;2.58;;
75603;SDS011;64187;51.010;13.792;2023-05-23T14:49:30;3.40;;;2.38;;
75603;SDS011;64187;51.010;13.792;2023-05-23T14:54:29;4.88;;;3.15;;
75603;SDS011;64187;51.010;13.792;2023-05-23T14:59:28;6.15;;;2.65;;
75603;SDS011;64187;51.010;13.792;2023-05-23T15:04:30;6.07;;;3.30;;
75603;SDS011;64187;51.010;13.792;2023-05-23T15:09:29;5.88;;;4.07;;
75603;SDS011;64187;51.010;13.792;2023-05-23T15:14:28;4.90;;;3.83;;
75603;SDS011;64187;51.010;13.792;2023-05-23T15:19:29;7.47;;;4.90;;
75603;SDS011;64187;51.010;13.792;2023-05-23T15:24:28;6.80;;;4.75;;
75603;SDS011;64187;51.010;13.792;2023-05-23T15:29:27;8.00;;;4.55;;
75603;SDS011;64187;51.010;13.792;2023-05-23T15:34:28;5.70;;;4.85;;
75603;SDS011;64187;51.010;13.792;2023-05-23T15:39:27;7.90;;;5.63;;
75603;SDS011;64187;51.010;13.792;2023-05-23T15:44:26;6.40;;;4.80;;
75603;SDS011;64187;51.010;13.792;2023-05-23T15:49:25;7.68;;;5.00;;
75603;SDS011;64187;51.010;13.792;2023-05-23T15:54:27;6.35;;;4.70;;
75603;SDS011;64187;51.010;13.792;2023-05-23T15:59:26;5.20;;;4.25;;
75603;SDS011;64187;51.010;13.792;2023-05-23T16:04:24;5.82;;;4.30;;
75603;SDS011;64187;51.010;13.792;2023-05-23T16:09:23;4.43;;;3.22;;
75603;SDS011;64187;51.010;13.792;2023-05-23T16:14:22;4.65;;;2.85;;
75603;SDS011;64187;51.010;13.792;2023-05-23T16:19:21;3.40;;;2.95;;
75603;SDS011;64187;51.010;13.792;2023-05-23T16:24:20;4.10;;;3.70;;
75603;SDS011;64187;51.010;13.792;2023-05-23T16:29:20;6.57;;;4.40;;
75603;SDS011;64187;51.010;13.792;2023-05-23T16:34:19;6.53;;;4.68;;
75603;SDS011;64187;51.010;13.792;2023-05-23T16:39:18;5.15;;;3.58;;
75603;SDS011;64187;51.010;13.792;2023-05-23T16:44:17;4.53;;;3.53;;
75603;SDS011;64187;51.010;13.792;2023-05-23T16:49:16;7.00;;;4.63;;
75603;SDS011;64187;51.010;13.792;2023-05-23T16:54:15;7.20;;;5.20;;
75603;SDS011;64187;51.010;13.792;2023-05-23T16:59:14;5.13;;;3.97;;
75603;SDS011;64187;51.010;13.792;2023-05-23T17:04:13;4.65;;;3.30;;
75603;SDS011;64187;51.010;13.792;2023-05-23T17:09:14;5.13;;;3.22;;
75603;SDS011;64187;51.010;13.792;2023-05-23T17:14:15;4.03;;;2.80;;
75603;SDS011;64187;51.010;13.792;2023-05-23T17:19:14;3.28;;;2.80;;
75603;SDS011;64187;51.010;13.792;2023-05-23T17:24:14;5.25;;;3.17;;
75603;SDS011;64187;51.010;13.792;2023-05-23T17:29:13;3.22;;;2.28;;
75603;SDS011;64187;51.010;13.792;2023-05-23T17:34:15;3.72;;;2.45;;
75603;SDS011;64187;51.010;13.792;2023-05-23T17:39:14;3.55;;;2.70;;
75603;SDS011;64187;51.010;13.792;2023-05-23T17:44:14;3.72;;;2.55;;
75603;SDS011;64187;51.010;13.792;2023-05-23T17:49:13;4.60;;;2.60;;
75603;SDS011;64187;51.010;13.792;2023-05-23T17:54:12;3.42;;;2.67;;
75603;SDS011;64187;51.010;13.792;2023-05-23T17:59:12;3.20;;;2.40;;
75603;SDS011;64187;51.010;13.792;2023-05-23T18:04:13;4.10;;;2.50;;
75603;SDS011;64187;51.010;13.792;2023-05-23T18:09:12;4.60;;;2.20;;
75603;SDS011;64187;51.010;13.792;2023-05-23T18:14:11;1.92;;;1.40;;
75603;SDS011;64187;51.010;13.792;2023-05-23T18:19:10;1.73;;;1.50;;
75603;SDS011;64187;51.010;13.792;2023-05-23T18:24:09;1.73;;;1.20;;
75603;SDS011;64187;51.010;13.792;2023-05-23T18:29:09;3.22;;;1.80;;
75603;SDS011;64187;51.010;13.792;2023-05-23T18:34:08;2.75;;;1.67;;
75603;SDS011;64187;51.010;13.792;2023-05-23T18:39:07;3.45;;;2.05;;
75603;SDS011;64187;51.010;13.792;2023-05-23T18:44:07;3.00;;;2.05;;
75603;SDS011;64187;51.010;13.792;2023-05-23T18:49:06;4.22;;;2.30;;
75603;SDS011;64187;51.010;13.792;2023-05-23T18:54:05;4.60;;;3.03;;
75603;SDS011;64187;51.010;13.792;2023-05-23T18:59:04;5.82;;;3.67;;
75603;SDS011;64187;51.010;13.792;2023-05-23T19:04:03;7.85;;;4.38;;
75603;SDS011;64187;51.010;13.792;2023-05-23T19:09:02;7.00;;;5.10;;
75603;SDS011;64187;51.010;13.792;2023-05-23T19:14:06;12.60;;;6.55;;
75603;SDS011;64187;51.010;13.792;2023-05-23T19:19:05;12.30;;;7.45;;
75603;SDS011;64187;51.010;13.792;2023-05-23T19:24:05;13.05;;;7.97;;
75603;SDS011;64187;51.010;13.792;2023-05-23T19:29:05;18.52;;;9.10;;
75603;SDS011;64187;51.010;13.792;2023-05-23T19:34:07;17.60;;;8.60;;
75603;SDS011;64187;51.010;13.792;2023-05-23T19:39:06;15.32;;;8.25;;
75603;SDS011;64187;51.010;13.792;2023-05-23T19:44:06;13.95;;;9.02;;
75603;SDS011;64187;51.010;13.792;2023-05-23T19:49:05;16.20;;;8.50;;
75603;SDS011;64187;51.010;13.792;2023-05-23T19:54:05;15.70;;;8.30;;
75603;SDS011;64187;51.010;13.792;2023-05-23T19:59:04;17.65;;;8.65;;
75603;SDS011;64187;51.010;13.792;2023-05-23T20:04:03;16.17;;;7.00;;
75603;SDS011;64187;51.010;13.792;2023-05-23T20:09:03;18.75;;;7.47;;
75603;SDS011;64187;51.010;13.792;2023-05-23T20:14:02;16.10;;;8.80;;
75603;SDS011;64187;51.010;13.792;2023-05-23T20:19:01;17.02;;;8.10;;
75603;SDS011;64187;51.010;13.792;2023-05-23T20:24:00;13.93;;;7.25;;
75603;SDS011;64187;51.010;13.792;2023-05-23T20:29:00;9.80;;;6.53;;
75603;SDS011;64187;51.010;13.792;2023-05-23T20:33:59;19.63;;;6.95;;
75603;SDS011;64187;51.010;13.792;2023-05-23T20:38:58;14.13;;;6.60;;
75603;SDS011;64187;51.010;13.792;2023-05-23T20:43:57;17.52;;;6.97;;
75603;SDS011;64187;51.010;13.792;2023-05-23T20:48:58;13.27;;;6.57;;
75603;SDS011;64187;51.010;13.792;2023-05-23T20:53:58;13.68;;;6.15;;
75603;SDS011;64187;51.010;13.792;2023-05-23T20:58:57;11.88;;;6.07;;
75603;SDS011;64187;51.010;13.792;2023-05-23T21:03:59;15.35;;;7.03;;
75603;SDS011;64187;51.010;13.792;2023-05-23T21:08:58;15.65;;;6.90;;
75603;SDS011;64187;51.010;13.792;2023-05-23T21:13:57;12.35;;;6.25;;
75603;SDS011;64187;51.010;13.792;2023-05-23T21:18:56;9.35;;;5.55;;
75603;SDS011;64187;51.010;13.792;2023-05-23T21:23:55;11.60;;;5.75;;
75603;SDS011;64187;51.010;13.792;2023-05-23T21:28:54;12.18;;;5.68;;
75603;SDS011;64187;51.010;13.792;2023-05-23T21:33:52;11.52;;;5.57;;
75603;SDS011;64187;51.010;13.792;2023-05-23T21:38:51;13.43;;;5.85;;
75603;SDS011;64187;51.010;13.792;2023-05-23T21:43:50;12.25;;;5.60;;
75603;SDS011;64187;51.010;13.792;2023-05-23T21:48:49;10.30;;;5.70;;
75603;SDS011;64187;51.010;13.792;2023-05-23T21:53:48;13.32;;;6.10;;
75603;SDS011;64187;51.010;13.792;2023-05-23T21:58:47;11.20;;;5.47;;
75603;SDS011;64187;51.010;13.792;2023-05-23T22:03:46;12.10;;;5.95;;
75603;SDS011;64187;51.010;13.792;2023-05-23T22:08:45;16.02;;;5.82;;
75603;SDS011;64187;51.010;13.792;2023-05-23T22:13:44;13.63;;;6.60;;
75603;SDS011;64187;51.010;13.792;2023-05-23T22:18:43;14.23;;;5.38;;
75603;SDS011;64187;51.010;13.792;2023-05-23T22:28:45;13.10;;;7.05;;
75603;SDS011;64187;51.010;13.792;2023-05-23T22:33:44;9.52;;;5.00;;
75603;SDS011;64187;51.010;13.792;2023-05-23T22:38:43;14.10;;;6.13;;
75603;SDS011;64187;51.010;13.792;2023-05-23T22:43:43;11.93;;;5.45;;
75603;SDS011;64187;51.010;13.792;2023-05-23T22:48:42;12.45;;;5.72;;
75603;SDS011;64187;51.010;13.792;2023-05-23T22:53:42;16.15;;;5.80;;
75603;SDS011;64187;51.010;13.792;2023-05-23T22:58:41;11.77;;;5.75;;
75603;SDS011;64187;51.010;13.792;2023-05-23T23:03:40;11.27;;;4.03;;
75603;SDS011;64187;51.010;13.792;2023-05-23T23:08:39;13.77;;;5.32;;
75603;SDS011;64187;51.010;13.792;2023-05-23T23:13:38;10.02;;;4.30;;
75603;SDS011;64187;51.010;13.792;2023-05-23T23:18:38;18.13;;;4.75;;
75603;SDS011;64187;51.010;13.792;2023-05-23T23:23:36;9.18;;;3.70;;
75603;SDS011;64187;51.010;13.792;2023-05-23T23:28:35;6.43;;;3.13;;
75603;SDS011;64187;51.010;13.792;2023-05-23T23:33:34;12.25;;;5.10;;
75603;SDS011;64187;51.010;13.792;2023-05-23T23:38:33;8.93;;;3.20;;
75603;SDS011;64187;51.010;13.792;2023-05-23T23:43:32;8.20;;;3.28;;
75603;SDS011;64187;51.010;13.792;2023-05-23T23:48:31;10.23;;;3.05;;
75603;SDS011;64187;51.010;13.792;2023-05-23T23:53:30;9.55;;;2.88;;
75603;SDS011;64187;51.010;13.792;2023-05-23T23:58:29;8.00;;;3.28;;
